Check out our new BloomSky Weather System.

Active alerts

Houston, TX
  Details for Houston, TX Dense Fog Advisory


Thunder radar  blitzortung!


Rain radar more information rain snow radar


Visit our other weather sites:

Template documentation
and downloads

And another site



Weather Underground History page Text

Daily Summary for December 2, 2017 Units:  Metric    English   Both
« Previous Day
Next Day »
Daily Weekly Monthly Yearly Custom
  High: Low: Average:
Temperature: 26.3 °C 8.9 °C 17.2 °C
Dew Point: 16.6 °C 8.4 °C 13.2 °C
Humidity: 99 % 49 % 80 %
Wind Speed: 8 km/h 0 km/h 1.1 km/h
Wind Gust: 12.9 km/h - -
Wind:- - SSE
Pressure: 1021.6 hPa 1017.8 hPa -
Precipitation: 0 mm    
Historical Graphs
 
 
Tabular Data for December 2, 2017
Time Temperature Dew Point Pressure Wind Wind Speed Wind Gust Humidity Rainfall Rate (Hourly)
00:01 11.7 °C 10.6 °C 1020.2 hPa Calm     93 % 0 mm
00:06 11.6 °C 10.5 °C 1019.9 hPa Calm     93 % 0 mm
00:16 11.4 °C 10.3 °C 1019.9 hPa Calm     93 % 0 mm
00:21 11.4 °C 10.5 °C 1019.9 hPa Calm     94 % 0 mm
00:26 11.3 °C 10.4 °C 1019.9 hPa Calm     94 % 0 mm
00:31 11.2 °C 10.3 °C 1019.9 hPa Calm     94 % 0 mm
00:41 10.8 °C 9.7 °C 1019.5 hPa Calm     93 % 0 mm
00:46 10.7 °C 9.8 °C 1019.5 hPa Calm     94 % 0 mm
00:51 10.8 °C 9.9 °C 1019.5 hPa Calm     94 % 0 mm
01:01 11 °C 10.2 °C 1019.5 hPa Calm   1.6 km/h 95 % 0 mm
01:06 10.9 °C 10 °C 1019.5 hPa Calm   1.6 km/h 94 % 0 mm
01:16 10.9 °C 10.1 °C 1019.5 hPa Calm     95 % 0 mm
01:27 10.7 °C 9.9 °C 1019.5 hPa Calm     95 % 0 mm
01:32 10.6 °C 9.8 °C 1019.5 hPa Calm     95 % 0 mm
01:42 10.7 °C 9.9 °C 1019.5 hPa Calm     95 % 0 mm
01:47 10.7 °C 9.9 °C 1019.5 hPa Calm     95 % 0 mm
02:07 10.5 °C 9.9 °C 1019.2 hPa Calm   1.6 km/h 96 % 0 mm
02:12 10.5 °C 9.9 °C 1019.2 hPa Calm   1.6 km/h 96 % 0 mm
02:17 10.5 °C 9.9 °C 1019.2 hPa Calm   1.6 km/h 96 % 0 mm
02:22 10.5 °C 9.9 °C 1019.2 hPa Calm     96 % 0 mm
02:27 10.4 °C 9.8 °C 1019.2 hPa Calm     96 % 0 mm
02:32 10.4 °C 9.8 °C 1019.2 hPa Calm     96 % 0 mm
02:37 10.3 °C 9.7 °C 1019.2 hPa Calm     96 % 0 mm
02:42 10.3 °C 9.7 °C 1019.2 hPa Calm     96 % 0 mm
02:47 10.2 °C 9.4 °C 1018.8 hPa Calm     95 % 0 mm
03:02 9.7 °C 8.9 °C 1018.8 hPa Calm     95 % 0 mm
03:17 9.8 °C 9.2 °C 1018.8 hPa Calm     96 % 0 mm
03:22 9.9 °C 9.3 °C 1018.8 hPa Calm     96 % 0 mm
03:27 10 °C 9.4 °C 1018.8 hPa Calm     96 % 0 mm
03:32 10 °C 9.4 °C 1018.8 hPa Calm     96 % 0 mm
03:37 9.9 °C 9.3 °C 1018.8 hPa Calm     96 % 0 mm
03:47 9.7 °C 9.1 °C 1018.8 hPa Calm     96 % 0 mm
03:52 9.6 °C 9 °C 1018.8 hPa Calm     96 % 0 mm
03:57 9.7 °C 9.1 °C 1019.2 hPa Calm     96 % 0 mm
04:08 9.6 °C 9.1 °C 1019.2 hPa Calm     97 % 0 mm
04:13 9.6 °C 9 °C 1019.2 hPa Calm     96 % 0 mm
04:18 9.6 °C 9.1 °C 1019.2 hPa Calm     97 % 0 mm
04:23 9.6 °C 9.1 °C 1019.5 hPa Calm     97 % 0 mm
04:28 9.5 °C 9 °C 1019.2 hPa Calm     97 % 0 mm
04:38 9.4 °C 8.9 °C 1019.2 hPa Calm     97 % 0 mm
04:48 9.6 °C 9.1 °C 1019.2 hPa Calm     97 % 0 mm
04:53 9.7 °C 9.2 °C 1019.2 hPa Calm     97 % 0 mm
04:58 9.7 °C 9.2 °C 1019.2 hPa Calm     97 % 0 mm
05:03 9.8 °C 9.3 °C 1019.2 hPa Calm     97 % 0 mm
05:08 9.7 °C 9.2 °C 1019.2 hPa Calm     97 % 0 mm
05:09 9.7 °C 9.2 °C 1019.2 hPa Calm     97 % 0 mm
05:14 9.6 °C 9.1 °C 1019.2 hPa Calm     97 % 0 mm
05:20 9.4 °C 8.9 °C 1019.2 hPa Calm     97 % 0 mm
05:25 9.5 °C 9 °C 1019.2 hPa Calm     97 % 0 mm
05:30 9.5 °C 9 °C 1019.2 hPa Calm   1.6 km/h 97 % 0 mm
05:45 9.3 °C 8.8 °C 1019.5 hPa Calm   1.6 km/h 97 % 0 mm
05:55 9.3 °C 8.8 °C 1019.5 hPa Calm   1.6 km/h 97 % 0 mm
05:56 9.3 °C 8.8 °C 1019.5 hPa Calm   1.6 km/h 97 % 0 mm
06:07 9.2 °C 8.7 °C 1019.9 hPa Calm   1.6 km/h 97 % 0 mm
06:12 9.2 °C 8.7 °C 1019.9 hPa Calm     97 % 0 mm
06:17 9.2 °C 8.9 °C 1019.9 hPa Calm     98 % 0 mm
06:22 9.2 °C 8.9 °C 1019.9 hPa Calm     98 % 0 mm
06:27 9.2 °C 8.9 °C 1020.2 hPa Calm     98 % 0 mm
06:28 9.2 °C 8.9 °C 1020.2 hPa Calm     98 % 0 mm
06:33 9.1 °C 8.6 °C 1019.9 hPa Calm     97 % 0 mm
06:38 8.9 °C 8.4 °C 1019.9 hPa Calm     97 % 0 mm
06:48 9.1 °C 8.8 °C 1020.2 hPa Calm     98 % 0 mm
06:53 8.9 °C 8.6 °C 1020.2 hPa Calm   1.6 km/h 98 % 0 mm
06:58 8.9 °C 8.4 °C 1020.2 hPa Calm   1.6 km/h 97 % 0 mm
07:03 8.9 °C 8.6 °C 1020.2 hPa Calm   1.6 km/h 98 % 0 mm
07:08 9 °C 8.7 °C 1020.2 hPa Calm     98 % 0 mm
07:13 9.1 °C 8.8 °C 1020.5 hPa Calm     98 % 0 mm
07:23 9.3 °C 9 °C 1020.5 hPa Calm     98 % 0 mm
07:33 9.4 °C 9.1 °C 1020.5 hPa Calm     98 % 0 mm
07:38 9.8 °C 9.5 °C 1020.5 hPa Calm     98 % 0 mm
07:53 11.2 °C 11 °C 1020.5 hPa Calm   1.6 km/h 99 % 0 mm
08:03 12.2 °C 12 °C 1020.9 hPa Calm   1.6 km/h 99 % 0 mm
08:08 12.5 °C 12.3 °C 1020.9 hPa Calm   1.6 km/h 99 % 0 mm
08:13 12.8 °C 12.6 °C 1020.9 hPa Calm   1.6 km/h 99 % 0 mm
08:18 13 °C 12.8 °C 1020.9 hPa Calm   1.6 km/h 99 % 0 mm
08:28 13.2 °C 12.9 °C 1020.9 hPa Calm   1.6 km/h 98 % 0 mm
08:38 13.9 °C 13.7 °C 1021.2 hPa Calm   1.6 km/h 99 % 0 mm
08:49 14.2 °C 13.9 °C 1021.6 hPa Calm   3.2 km/h 98 % 0 mm
08:54 14.6 °C 14.3 °C 1021.6 hPa North 1.6 km/h 3.2 km/h 98 % 0 mm
08:59 14.8 °C 14.3 °C 1021.6 hPa Calm   3.2 km/h 97 % 0 mm
09:09 15.6 °C 15 °C 1021.6 hPa East 1.6 km/h 3.2 km/h 96 % 0 mm
09:19 16.3 °C 15.3 °C 1021.6 hPa Calm   3.2 km/h 94 % 0 mm
09:29 17.2 °C 15.7 °C 1021.6 hPa ENE 1.6 km/h 3.2 km/h 91 % 0 mm
09:34 17.5 °C 15.5 °C 1021.6 hPa Calm   4.8 km/h 88 % 0 mm
09:39 17.7 °C 15.7 °C 1021.6 hPa South 1.6 km/h 4.8 km/h 88 % 0 mm
09:44 18.4 °C 16 °C 1021.6 hPa South 3.2 km/h 4.8 km/h 86 % 0 mm
09:49 18.6 °C 15.7 °C 1021.6 hPa SSE 3.2 km/h 6.4 km/h 83 % 0 mm
09:54 19 °C 16 °C 1021.6 hPa Calm   6.4 km/h 83 % 0 mm
09:59 19.2 °C 15.9 °C 1021.6 hPa SSE 1.6 km/h 6.4 km/h 81 % 0 mm
10:04 19.6 °C 16.6 °C 1021.6 hPa SW 1.6 km/h 6.4 km/h 83 % 0 mm
10:09 20.3 °C 16.5 °C 1021.6 hPa SSE 3.2 km/h 4.8 km/h 79 % 0 mm
10:14 20.6 °C 16.4 °C 1021.6 hPa SE 1.6 km/h 6.4 km/h 77 % 0 mm
10:19 20.6 °C 16.2 °C 1021.6 hPa SW 3.2 km/h 8 km/h 76 % 0 mm
10:24 20.7 °C 16.3 °C 1021.6 hPa SW 4.8 km/h 9.7 km/h 76 % 0 mm
10:29 20.9 °C 16.5 °C 1021.6 hPa SW 4.8 km/h 9.7 km/h 76 % 0 mm
10:34 21.1 °C 16.3 °C 1021.6 hPa South 3.2 km/h 9.7 km/h 74 % 0 mm
10:39 21.1 °C 16.3 °C 1021.6 hPa SSW 6.4 km/h 11.3 km/h 74 % 0 mm
10:44 21.3 °C 16.3 °C 1021.6 hPa ESE 4.8 km/h 11.3 km/h 73 % 0 mm
10:49 21.3 °C 16.3 °C 1021.6 hPa SE 8 km/h 11.3 km/h 73 % 0 mm
10:54 21.6 °C 16.1 °C 1021.6 hPa SSW 3.2 km/h 8 km/h 71 % 0 mm
10:59 21.7 °C 16.4 °C 1021.2 hPa SSW 8 km/h 8 km/h 72 % 0 mm
11:04 21.9 °C 16.6 °C 1021.2 hPa SSE 1.6 km/h 9.7 km/h 72 % 0 mm
11:09 22.1 °C 16.4 °C 1021.2 hPa SE 6.4 km/h 9.7 km/h 70 % 0 mm
11:14 22.3 °C 16.1 °C 1021.2 hPa South 3.2 km/h 9.7 km/h 68 % 0 mm
11:24 22.7 °C 16.5 °C 1021.2 hPa Calm   9.7 km/h 68 % 0 mm
11:39 22.8 °C 15.6 °C 1021.2 hPa SE 3.2 km/h 9.7 km/h 64 % 0 mm
11:44 22.8 °C 15.9 °C 1020.9 hPa East 3.2 km/h 9.7 km/h 65 % 0 mm
11:54 23.2 °C 15.5 °C 1020.9 hPa SSE 6.4 km/h 6.4 km/h 62 % 0 mm
11:59 23.2 °C 16 °C 1020.9 hPa East 1.6 km/h 11.3 km/h 64 % 0 mm
12:04 23.3 °C 16.1 °C 1020.5 hPa Calm   11.3 km/h 64 % 0 mm
12:09 23.6 °C 15.9 °C 1020.5 hPa SSW 3.2 km/h 11.3 km/h 62 % 0 mm
12:14 23.7 °C 15.5 °C 1020.2 hPa SSW 4.8 km/h 8 km/h 60 % 0 mm
12:19 23.6 °C 15.1 °C 1020.2 hPa SE 4.8 km/h 8 km/h 59 % 0 mm
12:24 23.8 °C 15.6 °C 1020.2 hPa SSW 1.6 km/h 9.7 km/h 60 % 0 mm
12:29 24.1 °C 15.8 °C 1019.9 hPa ENE 1.6 km/h 9.7 km/h 60 % 0 mm
12:34 24.1 °C 15.6 °C 1019.9 hPa Calm   9.7 km/h 59 % 0 mm
12:50 24.1 °C 15 °C 1019.9 hPa East 1.6 km/h 8 km/h 57 % 0 mm
12:55 24.1 °C 15.6 °C 1019.5 hPa ENE 3.2 km/h 8 km/h 59 % 0 mm
13:00 24.5 °C 14.9 °C 1019.5 hPa South 1.6 km/h 8 km/h 55 % 0 mm
13:10 24.4 °C 14.8 °C 1019.5 hPa SW 1.6 km/h 6.4 km/h 55 % 0 mm
13:15 24.6 °C 14.7 °C 1019.2 hPa WSW 1.6 km/h 6.4 km/h 54 % 0 mm
13:20 24.8 °C 14.3 °C 1019.2 hPa SSW 3.2 km/h 4.8 km/h 52 % 0 mm
13:25 25.1 °C 14.6 °C 1019.2 hPa SW 4.8 km/h 8 km/h 52 % 0 mm
13:30 25.2 °C 14.9 °C 1018.8 hPa SW 1.6 km/h 8 km/h 53 % 0 mm
13:35 25.4 °C 14.8 °C 1018.8 hPa SE 1.6 km/h 8 km/h 52 % 0 mm
13:45 25.4 °C 14.8 °C 1018.8 hPa SSE 4.8 km/h 11.3 km/h 52 % 0 mm
13:50 25.4 °C 14.8 °C 1018.8 hPa SW 6.4 km/h 11.3 km/h 52 % 0 mm
13:55 25.4 °C 14.8 °C 1018.8 hPa SSE 3.2 km/h 11.3 km/h 52 % 0 mm
14:00 25.4 °C 14.8 °C 1018.5 hPa SSW 1.6 km/h 9.7 km/h 52 % 0 mm
14:15 25.7 °C 14.8 °C 1018.5 hPa SE 1.6 km/h 9.7 km/h 51 % 0 mm
14:20 25.8 °C 14.9 °C 1018.5 hPa SE 3.2 km/h 8 km/h 51 % 0 mm
14:25 25.7 °C 14.5 °C 1018.5 hPa SE 1.6 km/h 8 km/h 50 % 0 mm
14:40 25.7 °C 14.8 °C 1018.2 hPa Calm   8 km/h 51 % 0 mm
14:45 26 °C 15.4 °C 1018.2 hPa SSW 3.2 km/h 8 km/h 52 % 0 mm
14:50 26.3 °C 15 °C 1018.2 hPa SE 4.8 km/h 6.4 km/h 50 % 0 mm
14:55 26.2 °C 15 °C 1018.2 hPa SSE 6.4 km/h 12.9 km/h 50 % 0 mm
15:00 25.9 °C 14.7 °C 1017.8 hPa SE 3.2 km/h 12.9 km/h 50 % 0 mm
15:05 25.8 °C 14.6 °C 1017.8 hPa SE 3.2 km/h 12.9 km/h 50 % 0 mm
15:10 25.7 °C 14.8 °C 1017.8 hPa SE 3.2 km/h 9.7 km/h 51 % 0 mm
15:20 25.8 °C 14.9 °C 1017.8 hPa SSE 6.4 km/h 9.7 km/h 51 % 0 mm
15:25 25.8 °C 14.6 °C 1017.8 hPa ESE 3.2 km/h 9.7 km/h 50 % 0 mm
15:30 25.7 °C 14.2 °C 1017.8 hPa South 4.8 km/h 11.3 km/h 49 % 0 mm
15:35 25.6 °C 14.4 °C 1017.8 hPa East 4.8 km/h 11.3 km/h 50 % 0 mm
15:41 25.6 °C 14.4 °C 1017.8 hPa SSW 3.2 km/h 11.3 km/h 50 % 0 mm
15:46 25.6 °C 14.4 °C 1017.8 hPa SE 3.2 km/h 8 km/h 50 % 0 mm
15:56 25.6 °C 14.4 °C 1017.8 hPa SSE 6.4 km/h 6.4 km/h 50 % 0 mm
16:01 25.4 °C 14.5 °C 1017.8 hPa SE 1.6 km/h 8 km/h 51 % 0 mm
16:02 25.4 °C 14.5 °C 1017.8 hPa SE 1.6 km/h 8 km/h 51 % 0 mm
16:12 25.2 °C 14.6 °C 1017.8 hPa SE 3.2 km/h 8 km/h 52 % 0 mm
16:17 25.1 °C 14.6 °C 1017.8 hPa Calm   6.4 km/h 52 % 0 mm
16:28 24.7 °C 14.8 °C 1017.8 hPa ESE 6.4 km/h 8 km/h 54 % 0 mm
16:33 24.6 °C 14.7 °C 1017.8 hPa ESE 3.2 km/h 8 km/h 54 % 0 mm
16:48 24.2 °C 14.9 °C 1018.2 hPa Calm   8 km/h 56 % 0 mm
16:58 23.7 °C 14.7 °C 1018.2 hPa East 3.2 km/h 6.4 km/h 57 % 0 mm
17:00 23.6 °C 14.6 °C 1018.2 hPa East 1.6 km/h 6.4 km/h 57 % 0 mm
17:10 23.2 °C 14.5 °C 1018.2 hPa Calm   4.8 km/h 58 % 0 mm
17:15 22.8 °C 14.4 °C 1018.5 hPa Calm   4.8 km/h 59 % 0 mm
17:20 22.6 °C 14.2 °C 1018.5 hPa Calm   4.8 km/h 59 % 0 mm
17:26 22.3 °C 14.4 °C 1018.5 hPa ESE 1.6 km/h 1.6 km/h 61 % 0 mm
17:31 22.1 °C 14.5 °C 1018.8 hPa Calm   1.6 km/h 62 % 0 mm
17:36 21.9 °C 14.3 °C 1018.8 hPa Calm   1.6 km/h 62 % 0 mm
17:46 21.5 °C 14.4 °C 1018.5 hPa Calm   1.6 km/h 64 % 0 mm
18:01 20.7 °C 14.4 °C 1018.8 hPa Calm   1.6 km/h 67 % 0 mm
18:06 20.6 °C 14.5 °C 1018.8 hPa Calm   1.6 km/h 68 % 0 mm
18:11 20.4 °C 14.7 °C 1018.8 hPa Calm   3.2 km/h 70 % 0 mm
18:16 20.4 °C 15 °C 1018.8 hPa SE 1.6 km/h 3.2 km/h 71 % 0 mm
18:21 20.4 °C 15.2 °C 1018.8 hPa SE 1.6 km/h 3.2 km/h 72 % 0 mm
18:26 20.4 °C 15.2 °C 1018.8 hPa South 1.6 km/h 3.2 km/h 72 % 0 mm
18:31 20.4 °C 15.4 °C 1018.8 hPa Calm   3.2 km/h 73 % 0 mm
18:36 20.3 °C 15.3 °C 1018.8 hPa ESE 1.6 km/h 4.8 km/h 73 % 0 mm
18:51 20.2 °C 15.2 °C 1019.2 hPa Calm   4.8 km/h 73 % 0 mm
18:56 20.1 °C 15.1 °C 1019.2 hPa Calm   3.2 km/h 73 % 0 mm
19:01 20 °C 15 °C 1019.2 hPa SE 1.6 km/h 3.2 km/h 73 % 0 mm
19:06 19.9 °C 14.9 °C 1019.5 hPa Calm   3.2 km/h 73 % 0 mm
19:11 19.8 °C 15 °C 1019.5 hPa Calm   3.2 km/h 74 % 0 mm
19:16 19.8 °C 15 °C 1019.5 hPa SE 1.6 km/h 3.2 km/h 74 % 0 mm
19:21 19.8 °C 15 °C 1019.5 hPa ESE 1.6 km/h 4.8 km/h 74 % 0 mm
19:26 19.7 °C 14.9 °C 1019.5 hPa Calm   4.8 km/h 74 % 0 mm
19:31 19.7 °C 15.1 °C 1019.5 hPa SE 1.6 km/h 4.8 km/h 75 % 0 mm
19:36 19.6 °C 15 °C 1019.5 hPa SSE 1.6 km/h 4.8 km/h 75 % 0 mm
19:41 19.6 °C 15 °C 1019.9 hPa SSE 3.2 km/h 4.8 km/h 75 % 0 mm
19:52 19.4 °C 15.1 °C 1019.9 hPa ESE 1.6 km/h 4.8 km/h 76 % 0 mm
20:02 19.2 °C 15.1 °C 1019.9 hPa ESE 3.2 km/h 6.4 km/h 77 % 0 mm
20:03 19.2 °C 15.1 °C 1019.9 hPa Calm   6.4 km/h 77 % 0 mm
20:08 19.1 °C 15 °C 1019.9 hPa Calm   6.4 km/h 77 % 0 mm
20:13 18.9 °C 14.8 °C 1019.9 hPa Calm   4.8 km/h 77 % 0 mm
20:18 18.8 °C 14.9 °C 1020.2 hPa Calm   3.2 km/h 78 % 0 mm
20:33 18.3 °C 14.6 °C 1020.2 hPa Calm   3.2 km/h 79 % 0 mm
20:37 18.2 °C 14.5 °C 1020.2 hPa Calm     79 % 0 mm
20:42 18.1 °C 14.6 °C 1020.2 hPa Calm     80 % 0 mm
20:52 18 °C 14.5 °C 1020.2 hPa Calm   1.6 km/h 80 % 0 mm
21:02 18 °C 14.7 °C 1020.2 hPa ESE 1.6 km/h 4.8 km/h 81 % 0 mm
21:07 18 °C 14.7 °C 1020.2 hPa SE 3.2 km/h 4.8 km/h 81 % 0 mm
21:12 17.9 °C 14.6 °C 1020.2 hPa Calm   4.8 km/h 81 % 0 mm
21:17 17.9 °C 14.6 °C 1020.2 hPa Calm   3.2 km/h 81 % 0 mm
21:22 17.7 °C 14.4 °C 1020.2 hPa Calm   3.2 km/h 81 % 0 mm
21:27 17.6 °C 14.5 °C 1020.2 hPa Calm   3.2 km/h 82 % 0 mm
21:32 17.6 °C 14.7 °C 1019.9 hPa SSE 1.6 km/h 1.6 km/h 83 % 0 mm
21:37 17.6 °C 14.9 °C 1019.9 hPa South 3.2 km/h 4.8 km/h 84 % 0 mm
21:42 17.5 °C 14.8 °C 1020.2 hPa Calm   4.8 km/h 84 % 0 mm
21:47 17.4 °C 14.7 °C 1020.2 hPa Calm   4.8 km/h 84 % 0 mm
21:52 17.4 °C 14.9 °C 1020.2 hPa Calm   3.2 km/h 85 % 0 mm
22:02 17.2 °C 14.8 °C 1020.2 hPa Calm   1.6 km/h 86 % 0 mm
22:07 17 °C 14.6 °C 1020.2 hPa Calm   1.6 km/h 86 % 0 mm
22:12 16.8 °C 14.4 °C 1020.2 hPa Calm   1.6 km/h 86 % 0 mm
22:17 16.7 °C 14.5 °C 1020.2 hPa Calm   1.6 km/h 87 % 0 mm
22:22 16.6 °C 14.6 °C 1020.2 hPa Calm   1.6 km/h 88 % 0 mm
22:27 16.4 °C 14.6 °C 1020.2 hPa Calm   1.6 km/h 89 % 0 mm
22:32 16.3 °C 14.5 °C 1020.2 hPa Calm   1.6 km/h 89 % 0 mm
22:37 16 °C 14.2 °C 1020.2 hPa Calm     89 % 0 mm
22:42 15.8 °C 14.2 °C 1020.2 hPa Calm     90 % 0 mm
22:47 15.7 °C 14.1 °C 1020.2 hPa Calm     90 % 0 mm
22:52 15.6 °C 14.1 °C 1020.2 hPa Calm     91 % 0 mm
22:57 15.6 °C 14.3 °C 1020.2 hPa Calm     92 % 0 mm
23:02 15.7 °C 14.4 °C 1020.2 hPa Calm   1.6 km/h 92 % 0 mm
23:07 15.7 °C 14.4 °C 1020.2 hPa Calm   1.6 km/h 92 % 0 mm
23:12 15.7 °C 14.4 °C 1020.2 hPa Calm   1.6 km/h 92 % 0 mm
23:22 15.6 °C 14.5 °C 1019.9 hPa Calm   1.6 km/h 93 % 0 mm
23:27 15.5 °C 14.4 °C 1019.9 hPa Calm   1.6 km/h 93 % 0 mm
23:32 15.4 °C 14.3 °C 1020.2 hPa Calm   1.6 km/h 93 % 0 mm
23:47 15.2 °C 14.1 °C 1019.9 hPa Calm     93 % 0 mm
23:52 15.2 °C 14.1 °C 1019.9 hPa Calm   1.6 km/h 93 % 0 mm
23:57 15.2 °C 14.2 °C 1019.9 hPa Calm   1.6 km/h 94 % 0 mm
Spring, Texas: Villages of Bridgestone
Compliments of Weather Underground - 2.5 mb

Script developed by  Jim McMurry - jmcmurry@mwt.net Adapted for the template by  Wim van der Kuil - Leuven-Template.eu

You find our weather info also at:

UK Metoffice

WeatherCloud

Weather Underground

Mid-South Weather Network

AWEKAS

Citizen Weather Observer Program (CWOP)

HAMweather, WeatherForYou, PWS Weather

Equipment we use:

Weather-station
Davis Vantage Vue

Weather-program
Meteohub

Weather-server
Debian 7.9 x86 (Guest)

Provider
DreamHost

Davis Vantage Vue

Meteohub

Debian 7.9 x86 (Guest)

DreamHost